createdAt,value
2023-05-20T00:00:53.659Z,14.35
2023-05-20T00:03:21.313Z,13.95
2023-05-20T00:05:49.183Z,15.40
2023-05-20T00:08:16.754Z,16.17
2023-05-20T00:10:44.272Z,14.43
2023-05-20T00:13:11.727Z,16.02
2023-05-20T00:15:39.240Z,15.48
2023-05-20T00:18:06.896Z,18.13
2023-05-20T00:20:34.436Z,14.70
2023-05-20T00:23:02.012Z,18.75
2023-05-20T00:25:31.494Z,13.02
2023-05-20T00:27:59.085Z,17.30
2023-05-20T00:30:26.559Z,14.85
2023-05-20T00:32:54.117Z,15.18
2023-05-20T00:35:21.606Z,16.95
2023-05-20T00:37:49.156Z,14.18
2023-05-20T00:40:16.742Z,16.90
2023-05-20T00:42:44.440Z,15.68
2023-05-20T00:45:11.967Z,15.18
2023-05-20T00:47:40.477Z,17.65
2023-05-20T00:50:08.613Z,17.27
2023-05-20T00:52:36.368Z,19.95
2023-05-20T00:55:04.183Z,16.42
2023-05-20T00:57:31.639Z,18.60
2023-05-20T00:59:59.697Z,18.00
2023-05-20T01:02:27.292Z,17.92
2023-05-20T01:04:56.753Z,16.60
2023-05-20T01:07:25.929Z,18.25
2023-05-20T01:09:54.485Z,17.50
2023-05-20T01:12:24.451Z,19.63
2023-05-20T01:15:04.880Z,18.20
2023-05-20T01:17:33.602Z,17.38
2023-05-20T01:20:05.627Z,18.65
2023-05-20T01:22:33.091Z,18.40
2023-05-20T01:25:00.491Z,14.07
2023-05-20T01:27:30.389Z,19.48
2023-05-20T01:29:58.197Z,16.73
2023-05-20T01:32:28.757Z,16.83
2023-05-20T01:34:56.635Z,20.30
2023-05-20T01:37:25.395Z,20.88
2023-05-20T01:39:53.289Z,19.83
2023-05-20T01:42:21.158Z,18.58
2023-05-20T01:44:49.329Z,19.45
2023-05-20T01:47:16.771Z,18.98
2023-05-20T01:49:46.226Z,21.77
2023-05-20T01:52:13.794Z,19.48
2023-05-20T01:54:42.279Z,20.08
2023-05-20T01:57:10.393Z,25.73
2023-05-20T01:59:38.026Z,27.70
2023-05-20T02:02:05.618Z,22.10
2023-05-20T02:04:33.090Z,23.50
2023-05-20T02:07:00.567Z,22.48
2023-05-20T02:09:28.116Z,22.92
2023-05-20T02:11:55.715Z,22.63
2023-05-20T02:14:23.137Z,25.58
2023-05-20T02:16:50.713Z,25.25
2023-05-20T02:19:24.002Z,21.50
2023-05-20T02:21:51.850Z,23.98
2023-05-20T02:24:21.188Z,24.05
2023-05-20T02:26:51.300Z,23.60
2023-05-20T02:29:19.763Z,25.77
2023-05-20T02:31:47.196Z,23.15
2023-05-20T02:34:14.784Z,24.45
2023-05-20T02:36:42.428Z,25.90
2023-05-20T02:39:10.158Z,22.38
2023-05-20T02:41:37.636Z,19.85
2023-05-20T02:44:05.215Z,21.67
2023-05-20T02:46:32.784Z,25.73
2023-05-20T02:49:00.732Z,20.55
2023-05-20T02:51:28.296Z,20.45
2023-05-20T02:53:55.753Z,20.85
2023-05-20T02:56:24.713Z,24.55
2023-05-20T02:58:52.324Z,21.77
2023-05-20T03:01:19.799Z,19.25
2023-05-20T03:03:47.351Z,25.77
2023-05-20T03:06:14.879Z,24.08
2023-05-20T03:08:42.891Z,23.85
2023-05-20T03:11:10.478Z,20.92
2023-05-20T03:13:37.858Z,27.80
2023-05-20T03:16:05.678Z,23.85
2023-05-20T03:18:33.383Z,24.55
2023-05-20T03:21:00.939Z,24.90
2023-05-20T03:23:28.470Z,20.30
2023-05-20T03:25:56.174Z,18.83
2023-05-20T03:28:23.684Z,17.38
2023-05-20T03:30:51.204Z,22.95
2023-05-20T03:33:18.999Z,20.60
2023-05-20T03:35:46.505Z,24.38
2023-05-20T03:38:15.518Z,25.13
2023-05-20T03:40:43.043Z,22.10
2023-05-20T03:43:10.641Z,18.27
2023-05-20T03:45:38.409Z,18.23
2023-05-20T03:48:07.866Z,16.63
2023-05-20T03:50:36.575Z,23.15
2023-05-20T03:53:03.982Z,22.55
2023-05-20T03:55:38.650Z,21.92
2023-05-20T03:58:08.126Z,20.50
2023-05-20T04:00:35.734Z,21.98
2023-05-20T04:03:03.436Z,24.60
2023-05-20T04:05:31.410Z,20.73
2023-05-20T04:07:59.457Z,21.15
2023-05-20T04:10:27.731Z,18.98
2023-05-20T04:12:55.255Z,18.30
2023-05-20T04:15:24.028Z,24.60
2023-05-20T04:18:01.515Z,21.00
2023-05-20T04:20:29.572Z,21.20
2023-05-20T04:22:58.838Z,16.13
2023-05-20T04:25:27.491Z,21.52
2023-05-20T04:27:57.613Z,18.92
2023-05-20T04:30:25.458Z,20.85
2023-05-20T04:32:53.764Z,17.98
2023-05-20T04:35:21.654Z,19.40
2023-05-20T04:37:53.167Z,18.60
2023-05-20T04:40:21.677Z,17.30
2023-05-20T04:42:49.109Z,17.10
2023-05-20T04:45:16.733Z,14.57
2023-05-20T04:47:44.390Z,22.75
2023-05-20T04:50:13.453Z,19.38
2023-05-20T04:52:43.346Z,17.75
2023-05-20T04:55:12.037Z,18.83
2023-05-20T04:57:42.189Z,19.35
2023-05-20T05:00:11.052Z,19.90
2023-05-20T05:02:39.087Z,19.02
2023-05-20T05:05:07.467Z,18.52
2023-05-20T05:07:35.182Z,16.23
2023-05-20T05:10:02.870Z,19.77
2023-05-20T05:12:31.998Z,20.45
2023-05-20T05:15:00.121Z,21.77
2023-05-20T05:17:28.985Z,19.35
2023-05-20T05:19:58.205Z,18.25
2023-05-20T05:22:27.436Z,17.98
2023-05-20T05:24:55.930Z,18.55
2023-05-20T05:27:23.700Z,18.45
2023-05-20T05:29:51.307Z,17.35
2023-05-20T05:32:19.714Z,18.13
2023-05-20T05:34:47.555Z,19.20
2023-05-20T05:37:15.072Z,20.52
2023-05-20T05:39:43.034Z,18.23
2023-05-20T05:42:10.516Z,20.67
2023-05-20T05:44:38.679Z,17.15
2023-05-20T05:47:08.498Z,16.85
2023-05-20T05:49:36.267Z,17.33
2023-05-20T05:52:04.022Z,15.00
2023-05-20T05:54:31.865Z,19.83
2023-05-20T05:56:59.560Z,17.65
2023-05-20T05:59:29.543Z,21.42
2023-05-20T06:01:57.809Z,16.63
2023-05-20T06:04:25.732Z,18.45
2023-05-20T06:06:56.711Z,15.20
2023-05-20T06:09:24.153Z,16.80
2023-05-20T06:11:53.071Z,19.40
2023-05-20T06:14:21.227Z,18.10
2023-05-20T06:16:48.910Z,16.02
2023-05-20T06:19:18.171Z,15.88
2023-05-20T06:21:45.978Z,16.27
2023-05-20T06:24:13.482Z,15.25
2023-05-20T06:26:41.266Z,13.05
2023-05-20T06:29:09.250Z,12.38
2023-05-20T06:31:36.734Z,11.88
2023-05-20T06:34:04.319Z,11.50
2023-05-20T06:36:33.665Z,10.07
2023-05-20T06:39:01.560Z,12.15
2023-05-20T06:41:29.889Z,9.63
2023-05-20T06:43:57.350Z,11.07
2023-05-20T06:46:43.253Z,12.23
2023-05-20T06:49:13.857Z,9.93
2023-05-20T06:51:41.552Z,9.00
2023-05-20T06:54:09.028Z,11.40
2023-05-20T06:56:36.723Z,10.48
2023-05-20T06:59:04.181Z,8.88
2023-05-20T07:01:34.564Z,11.40
2023-05-20T07:04:02.797Z,11.25
2023-05-20T07:06:31.596Z,11.55
2023-05-20T07:08:59.786Z,8.95
2023-05-20T07:11:27.682Z,8.15
2023-05-20T07:13:55.724Z,11.48
2023-05-20T07:16:25.532Z,9.88
2023-05-20T07:18:55.714Z,10.43
2023-05-20T07:21:23.314Z,13.05
2023-05-20T07:24:11.039Z,9.40
2023-05-20T07:26:38.690Z,10.68
2023-05-20T07:29:06.303Z,10.68
2023-05-20T07:31:34.514Z,10.65
2023-05-20T07:34:02.123Z,9.90
2023-05-20T07:36:29.779Z,13.75
2023-05-20T07:39:05.019Z,10.80
2023-05-20T07:41:36.389Z,9.35
2023-05-20T07:44:05.264Z,12.07
2023-05-20T07:46:35.175Z,10.95
2023-05-20T07:49:04.247Z,11.52
2023-05-20T07:51:32.021Z,12.77
2023-05-20T07:54:00.468Z,16.08
2023-05-20T07:56:28.555Z,13.10
2023-05-20T07:58:58.446Z,12.25
2023-05-20T08:01:28.969Z,12.05
2023-05-20T08:03:57.249Z,10.88
2023-05-20T08:06:28.759Z,11.93
2023-05-20T08:08:57.593Z,14.65
2023-05-20T08:11:32.236Z,14.55
2023-05-20T08:14:00.689Z,11.68
2023-05-20T08:16:31.303Z,13.15
2023-05-20T08:18:58.916Z,11.07
2023-05-20T08:21:26.794Z,12.35
2023-05-20T08:23:56.446Z,17.63
2023-05-20T08:26:24.669Z,14.60
2023-05-20T08:28:52.157Z,12.13
2023-05-20T08:31:20.248Z,15.55
2023-05-20T08:33:47.831Z,11.70
2023-05-20T08:36:15.338Z,10.32
2023-05-20T08:38:42.953Z,14.20
2023-05-20T08:41:10.509Z,12.18
2023-05-20T08:43:39.926Z,12.35
2023-05-20T08:46:07.982Z,14.77
2023-05-20T08:48:37.104Z,12.07
2023-05-20T08:51:05.047Z,10.40
2023-05-20T08:53:32.552Z,14.48
2023-05-20T08:56:03.329Z,13.45
2023-05-20T08:58:31.623Z,17.15
2023-05-20T09:00:59.306Z,12.30
2023-05-20T09:03:26.766Z,13.77
2023-05-20T09:05:54.556Z,16.13
2023-05-20T09:08:26.990Z,11.48
2023-05-20T09:10:54.685Z,12.13
2023-05-20T09:13:23.776Z,11.52
2023-05-20T09:15:51.661Z,8.57
2023-05-20T09:18:19.441Z,10.50
2023-05-20T09:20:53.093Z,13.60
2023-05-20T09:23:25.636Z,9.65
2023-05-20T09:25:53.541Z,10.75
2023-05-20T09:28:24.159Z,10.07
2023-05-20T09:30:51.902Z,10.82
2023-05-20T09:33:19.555Z,9.85
2023-05-20T09:35:47.844Z,10.95
2023-05-20T09:38:16.263Z,9.07
2023-05-20T09:40:44.274Z,11.88
2023-05-20T09:43:12.450Z,10.07
2023-05-20T09:45:40.125Z,9.45
2023-05-20T09:48:09.159Z,11.32
2023-05-20T09:50:36.753Z,11.38
2023-05-20T09:53:04.800Z,12.93
2023-05-20T09:55:32.773Z,11.98
2023-05-20T09:58:03.264Z,12.50
2023-05-20T10:00:31.667Z,11.25
2023-05-20T10:02:59.305Z,13.85
2023-05-20T10:05:33.733Z,9.02
2023-05-20T10:08:18.912Z,11.63
2023-05-20T10:10:52.596Z,13.40
2023-05-20T10:13:43.325Z,13.00
2023-05-20T10:16:16.933Z,13.63
2023-05-20T10:19:06.696Z,8.48
2023-05-20T10:21:34.259Z,9.68
2023-05-20T10:24:08.272Z,8.38
2023-05-20T10:26:36.724Z,9.23
2023-05-20T10:29:15.445Z,12.07
2023-05-20T10:31:49.257Z,14.52
2023-05-20T10:34:18.099Z,12.37
2023-05-20T10:36:54.653Z,12.82
2023-05-20T10:39:29.592Z,10.40
2023-05-20T10:42:12.277Z,12.05
2023-05-20T10:44:42.924Z,13.38
2023-05-20T10:49:48.157Z,8.63
2023-05-20T10:52:16.106Z,11.23
2023-05-20T10:54:57.365Z,9.98
2023-05-20T10:57:25.279Z,10.10
2023-05-20T10:59:52.989Z,9.80
2023-05-20T11:02:26.716Z,11.45
2023-05-20T11:04:54.413Z,9.40
2023-05-20T11:07:28.889Z,10.07
2023-05-20T11:09:59.769Z,9.75
2023-05-20T11:12:27.989Z,8.57
2023-05-20T11:14:55.686Z,8.60
2023-05-20T11:17:23.314Z,8.82
2023-05-20T11:19:51.533Z,9.98
2023-05-20T11:22:19.017Z,8.52
2023-05-20T11:24:47.424Z,8.15
2023-05-20T11:27:24.797Z,8.40
2023-05-20T11:29:53.448Z,8.07
2023-05-20T11:32:22.201Z,8.20
2023-05-20T11:34:53.215Z,12.48
2023-05-20T11:37:21.965Z,10.50
2023-05-20T11:39:49.470Z,10.68
2023-05-20T11:42:17.119Z,10.30
2023-05-20T11:44:45.377Z,8.18
2023-05-20T11:47:13.263Z,7.78
2023-05-20T11:49:41.522Z,10.02
2023-05-20T11:52:10.563Z,7.38
2023-05-20T11:54:38.081Z,11.57
2023-05-20T11:57:07.085Z,12.63
2023-05-20T11:59:35.923Z,9.45
2023-05-20T12:02:03.482Z,9.90
2023-05-20T12:04:31.645Z,9.55
2023-05-20T12:06:59.350Z,14.07
2023-05-20T12:09:27.239Z,10.05
2023-05-20T12:11:56.616Z,8.43
2023-05-20T12:14:24.050Z,9.80
2023-05-20T12:16:53.700Z,39.00
2023-05-20T12:19:21.335Z,9.60
2023-05-20T12:21:48.880Z,9.23
2023-05-20T12:24:16.423Z,9.27
2023-05-20T12:26:43.872Z,10.57
2023-05-20T12:29:11.304Z,9.88
2023-05-20T12:31:38.804Z,8.60
2023-05-20T12:34:06.324Z,8.35
2023-05-20T12:36:33.926Z,7.68
2023-05-20T12:39:01.416Z,10.60
2023-05-20T12:41:28.806Z,9.48
2023-05-20T12:43:56.318Z,10.60
2023-05-20T12:46:23.830Z,7.80
2023-05-20T12:48:51.419Z,11.15
2023-05-20T12:51:20.257Z,9.68
2023-05-20T12:53:47.851Z,10.57
2023-05-20T12:56:15.340Z,9.65
2023-05-20T12:58:42.880Z,8.80
2023-05-20T13:01:10.506Z,11.48
2023-05-20T13:03:38.168Z,11.38
2023-05-20T13:06:05.881Z,32.38
2023-05-20T13:08:33.424Z,14.13
2023-05-20T13:11:00.821Z,13.25
2023-05-20T13:13:28.289Z,11.50
2023-05-20T13:15:55.697Z,14.20
2023-05-20T13:18:23.338Z,11.02
2023-05-20T13:20:50.876Z,10.48
2023-05-20T13:23:18.305Z,17.02
2023-05-20T13:25:45.763Z,12.40
2023-05-20T13:28:16.716Z,10.27
2023-05-20T13:30:44.371Z,11.80
2023-05-20T13:33:11.761Z,12.15
2023-05-20T13:35:39.232Z,12.23
2023-05-20T13:38:06.663Z,10.02
2023-05-20T13:40:34.263Z,10.55
2023-05-20T13:43:01.859Z,11.30
2023-05-20T13:45:29.819Z,11.10
2023-05-20T13:47:57.358Z,11.35
2023-05-20T13:50:25.029Z,9.85
2023-05-20T13:52:52.654Z,9.82
2023-05-20T13:55:20.218Z,10.40
2023-05-20T13:57:47.688Z,15.77
2023-05-20T14:00:15.377Z,13.63
2023-05-20T14:02:43.069Z,13.63
2023-05-20T14:05:10.736Z,11.80
2023-05-20T14:07:38.178Z,10.73
2023-05-20T14:10:06.484Z,11.57
2023-05-20T14:12:33.898Z,9.27
2023-05-20T14:15:01.464Z,9.85
2023-05-20T14:17:29.064Z,9.82
2023-05-20T14:19:56.512Z,9.52
2023-05-20T14:22:24.138Z,7.18
2023-05-20T14:24:51.610Z,7.75
2023-05-20T14:27:19.003Z,10.07
2023-05-20T14:29:46.718Z,10.20
2023-05-20T14:32:14.279Z,10.93
2023-05-20T14:34:42.053Z,8.55
2023-05-20T14:37:11.889Z,11.48
2023-05-20T14:39:42.576Z,11.27
2023-05-20T14:42:10.045Z,11.43
2023-05-20T14:44:39.274Z,15.02
2023-05-20T14:47:07.237Z,9.70
2023-05-20T14:49:35.122Z,10.55
2023-05-20T14:52:02.524Z,11.65
2023-05-20T14:54:29.964Z,13.10
2023-05-20T14:56:57.443Z,11.02
2023-05-20T14:59:24.964Z,11.00
2023-05-20T15:01:53.310Z,8.55
2023-05-20T15:04:20.697Z,8.10
2023-05-20T15:06:48.299Z,13.35
2023-05-20T15:09:15.907Z,15.85
2023-05-20T15:11:43.309Z,10.88
2023-05-20T15:14:10.806Z,11.73
2023-05-20T15:16:38.662Z,14.30
2023-05-20T15:19:06.219Z,8.80
2023-05-20T15:21:33.739Z,12.32
2023-05-20T15:24:01.374Z,11.82
2023-05-20T15:26:31.792Z,10.45
2023-05-20T15:28:59.564Z,11.35
2023-05-20T15:31:26.990Z,8.38
2023-05-20T15:33:55.849Z,10.55
2023-05-20T15:36:23.515Z,11.10
2023-05-20T15:38:50.980Z,10.00
2023-05-20T15:41:18.517Z,16.85
2023-05-20T15:43:46.123Z,13.75
2023-05-20T15:46:13.694Z,12.25
2023-05-20T15:48:41.680Z,9.50
2023-05-20T15:51:09.269Z,10.55
2023-05-20T15:53:38.657Z,9.88
2023-05-20T15:56:08.353Z,10.05
2023-05-20T15:58:36.197Z,12.40
2023-05-20T16:01:03.830Z,11.35
2023-05-20T16:03:32.101Z,12.88
2023-05-20T16:05:59.786Z,16.42
2023-05-20T16:08:29.450Z,11.60
2023-05-20T16:10:57.129Z,13.73
2023-05-20T16:13:24.609Z,11.65
2023-05-20T16:15:52.179Z,15.52
2023-05-20T16:18:19.686Z,10.98
2023-05-20T16:20:47.175Z,17.48
2023-05-20T16:23:14.576Z,13.57
2023-05-20T16:25:42.055Z,11.43
2023-05-20T16:28:09.491Z,14.95
2023-05-20T16:30:37.175Z,13.73
2023-05-20T16:33:11.037Z,15.60
2023-05-20T16:35:38.807Z,11.17
2023-05-20T16:38:06.247Z,14.32
2023-05-20T16:40:36.913Z,14.32
2023-05-20T16:43:04.427Z,14.60
2023-05-20T16:45:31.877Z,14.27
2023-05-20T16:47:59.486Z,18.63
2023-05-20T16:50:26.955Z,17.77
2023-05-20T16:52:54.460Z,18.10
2023-05-20T16:55:21.931Z,17.15
2023-05-20T16:57:50.580Z,15.05
2023-05-20T17:00:18.559Z,18.40
2023-05-20T17:02:46.514Z,15.00
2023-05-20T17:05:16.663Z,13.15
2023-05-20T17:07:44.419Z,19.15
2023-05-20T17:10:11.962Z,19.17
2023-05-20T17:12:39.416Z,16.33
2023-05-20T17:15:07.249Z,22.88
2023-05-20T17:17:34.750Z,20.42
2023-05-20T17:20:02.271Z,27.48
2023-05-20T17:22:29.791Z,29.63
2023-05-20T17:24:57.271Z,27.90
2023-05-20T17:27:24.802Z,20.13
2023-05-20T17:29:52.296Z,20.25
2023-05-20T17:32:19.811Z,18.17
2023-05-20T17:34:47.424Z,13.20
2023-05-20T17:37:14.883Z,16.33
2023-05-20T17:39:45.962Z,15.48
2023-05-20T17:42:32.195Z,13.50
2023-05-20T17:45:03.558Z,14.50
2023-05-20T17:47:31.136Z,16.20
2023-05-20T17:50:00.064Z,14.57
2023-05-20T17:52:27.557Z,14.07
2023-05-20T17:54:55.066Z,11.88
2023-05-20T17:57:22.605Z,14.18
2023-05-20T17:59:50.862Z,11.18
2023-05-20T18:02:18.473Z,10.93
2023-05-20T18:04:46.184Z,12.48
2023-05-20T18:07:13.642Z,9.15
2023-05-20T18:09:41.313Z,9.13
2023-05-20T18:12:08.982Z,11.80
2023-05-20T18:14:36.388Z,10.02
2023-05-20T18:17:04.046Z,12.82
2023-05-20T18:19:33.744Z,11.35
2023-05-20T18:22:02.823Z,11.13
2023-05-20T18:24:30.751Z,12.18
2023-05-20T18:26:58.268Z,10.38
2023-05-20T18:29:27.216Z,12.40
2023-05-20T18:31:56.247Z,10.65
2023-05-20T18:34:26.617Z,13.18
2023-05-20T18:36:54.677Z,9.65
2023-05-20T18:39:22.084Z,11.50
2023-05-20T18:41:49.660Z,13.07
2023-05-20T18:44:18.190Z,10.27
2023-05-20T18:46:46.340Z,12.32
2023-05-20T18:49:13.964Z,10.82
2023-05-20T18:51:42.112Z,9.88
2023-05-20T18:54:09.850Z,9.60
2023-05-20T18:56:37.898Z,11.43
2023-05-20T18:59:05.793Z,10.95
2023-05-20T19:01:34.035Z,10.45
2023-05-20T19:04:03.097Z,11.82
2023-05-20T19:06:31.879Z,10.88
2023-05-20T19:09:00.799Z,13.57
2023-05-20T19:11:28.809Z,11.43
2023-05-20T19:13:57.840Z,12.52
2023-05-20T19:16:26.378Z,12.10
2023-05-20T19:18:53.910Z,12.45
2023-05-20T19:21:21.447Z,9.98
2023-05-20T19:23:49.951Z,11.77
2023-05-20T19:26:18.171Z,14.20
2023-05-20T19:28:46.041Z,11.95
2023-05-20T19:31:20.871Z,11.50
2023-05-20T19:33:49.152Z,11.32
2023-05-20T19:36:16.671Z,13.05
2023-05-20T19:38:47.730Z,11.68
2023-05-20T19:41:17.409Z,11.30
2023-05-20T19:43:44.994Z,12.32
2023-05-20T19:46:12.519Z,10.20
2023-05-20T19:48:40.019Z,11.02
2023-05-20T19:51:07.918Z,11.82
2023-05-20T19:53:35.302Z,12.95
2023-05-20T19:56:03.178Z,10.82
2023-05-20T19:58:30.590Z,10.20
2023-05-20T20:00:58.071Z,12.30
2023-05-20T20:03:25.578Z,11.65
2023-05-20T20:05:53.229Z,13.77
2023-05-20T20:08:20.706Z,16.98
2023-05-20T20:10:49.261Z,15.40
2023-05-20T20:13:16.908Z,11.52
2023-05-20T20:15:44.383Z,13.95
2023-05-20T20:18:11.920Z,11.90
2023-05-20T20:20:42.661Z,12.10
2023-05-20T20:23:10.976Z,14.25
2023-05-20T20:25:39.379Z,11.63
2023-05-20T20:28:07.622Z,11.93
2023-05-20T20:30:38.822Z,15.18
2023-05-20T20:33:09.410Z,9.63
2023-05-20T20:35:37.853Z,11.52
2023-05-20T20:38:09.631Z,14.20
2023-05-20T20:40:44.786Z,10.90
2023-05-20T20:43:20.574Z,14.02
2023-05-20T20:45:50.791Z,12.52
2023-05-20T20:48:18.820Z,11.35
2023-05-20T20:50:47.928Z,11.48
2023-05-20T20:53:17.068Z,10.20
2023-05-20T20:55:46.213Z,11.05
2023-05-20T20:58:15.318Z,11.95
2023-05-20T21:00:47.263Z,13.07
2023-05-20T21:03:14.923Z,12.50
2023-05-20T21:05:42.325Z,12.25
2023-05-20T21:08:10.493Z,14.43
2023-05-20T21:10:38.298Z,11.65
2023-05-20T21:13:05.869Z,10.73
2023-05-20T21:15:33.550Z,11.20
2023-05-20T21:18:01.178Z,9.65
2023-05-20T21:20:28.672Z,9.38
2023-05-20T21:22:56.225Z,9.85
2023-05-20T21:25:25.945Z,10.40
2023-05-20T21:27:53.406Z,12.32
2023-05-20T21:30:20.999Z,12.00
2023-05-20T21:32:48.751Z,10.98
2023-05-20T21:35:19.198Z,10.95
2023-05-20T21:37:46.707Z,11.73
2023-05-20T21:40:14.221Z,15.38
2023-05-20T21:42:41.885Z,16.65
2023-05-20T21:45:10.351Z,13.45
2023-05-20T21:47:39.947Z,11.52
2023-05-20T21:50:09.517Z,13.50
2023-05-20T21:52:37.009Z,11.57
2023-05-20T21:55:04.559Z,13.00
2023-05-20T21:57:32.086Z,11.63
2023-05-20T21:59:59.866Z,15.20
2023-05-20T22:02:27.621Z,17.00
2023-05-20T22:04:55.327Z,13.65
2023-05-20T22:07:22.758Z,14.65
2023-05-20T22:09:50.327Z,13.90
2023-05-20T22:12:17.716Z,15.10
2023-05-20T22:14:45.179Z,13.55
2023-05-20T22:17:13.035Z,15.60
2023-05-20T22:19:41.609Z,14.25
2023-05-20T22:22:09.044Z,13.80
2023-05-20T22:24:36.522Z,18.58
2023-05-20T22:27:04.051Z,16.83
2023-05-20T22:29:32.581Z,14.10
2023-05-20T22:32:00.593Z,17.02
2023-05-20T22:34:28.391Z,17.33
2023-05-20T22:36:55.855Z,14.50
2023-05-20T22:39:23.277Z,15.85
2023-05-20T22:41:51.015Z,14.43
2023-05-20T22:44:18.475Z,16.15
2023-05-20T22:46:46.197Z,18.02
2023-05-20T22:49:14.432Z,16.27
2023-05-20T22:51:42.768Z,17.85
2023-05-20T22:54:10.244Z,16.42
2023-05-20T22:56:37.667Z,17.60
2023-05-20T22:59:05.158Z,18.10
2023-05-20T23:01:32.664Z,18.73
2023-05-20T23:04:00.299Z,18.77
2023-05-20T23:06:27.949Z,16.52
2023-05-20T23:08:55.533Z,14.82
2023-05-20T23:11:23.368Z,21.75
2023-05-20T23:13:50.948Z,19.60
2023-05-20T23:16:18.362Z,18.13
2023-05-20T23:18:46.787Z,18.65
2023-05-20T23:21:14.435Z,19.92
2023-05-20T23:23:42.140Z,18.75
2023-05-20T23:26:09.639Z,19.55
2023-05-20T23:28:37.289Z,22.83
2023-05-20T23:31:04.820Z,22.33
2023-05-20T23:33:32.828Z,21.08
2023-05-20T23:36:00.558Z,17.58
2023-05-20T23:38:28.077Z,18.10
2023-05-20T23:40:55.559Z,20.58
2023-05-20T23:43:23.087Z,21.33
2023-05-20T23:45:50.603Z,19.20
2023-05-20T23:48:19.912Z,19.73
2023-05-20T23:50:48.227Z,18.25
2023-05-20T23:53:15.904Z,19.65
2023-05-20T23:55:45.321Z,17.25
2023-05-20T23:58:12.823Z,17.45
